sensor_id;sensor_type;location;lat;lon;timestamp;temperature;humidity
51559;DHT22;61650;48.882;2.092;2023-04-06T00:00:48;8.00;64.40
51559;DHT22;61650;48.882;2.092;2023-04-06T00:03:14;7.80;65.30
51559;DHT22;61650;48.882;2.092;2023-04-06T00:05:40;7.80;65.00
51559;DHT22;61650;48.882;2.092;2023-04-06T00:08:06;7.80;64.50
51559;DHT22;61650;48.882;2.092;2023-04-06T00:10:31;7.80;64.30
51559;DHT22;61650;48.882;2.092;2023-04-06T00:12:58;7.90;64.30
51559;DHT22;61650;48.882;2.092;2023-04-06T00:15:24;7.90;64.20
51559;DHT22;61650;48.882;2.092;2023-04-06T00:17:49;7.80;64.80
51559;DHT22;61650;48.882;2.092;2023-04-06T00:20:15;7.80;64.20
51559;DHT22;61650;48.882;2.092;2023-04-06T00:22:41;7.70;65.60
51559;DHT22;61650;48.882;2.092;2023-04-06T00:25:07;7.70;65.70
51559;DHT22;61650;48.882;2.092;2023-04-06T00:27:33;7.60;66.70
51559;DHT22;61650;48.882;2.092;2023-04-06T00:29:59;7.60;65.50
51559;DHT22;61650;48.882;2.092;2023-04-06T00:32:24;7.60;67.30
51559;DHT22;61650;48.882;2.092;2023-04-06T00:34:50;7.50;66.90
51559;DHT22;61650;48.882;2.092;2023-04-06T00:37:16;7.50;67.60
51559;DHT22;61650;48.882;2.092;2023-04-06T00:39:42;7.40;68.20
51559;DHT22;61650;48.882;2.092;2023-04-06T00:42:11;7.40;67.50
51559;DHT22;61650;48.882;2.092;2023-04-06T00:44:41;7.40;66.90
51559;DHT22;61650;48.882;2.092;2023-04-06T00:47:08;7.40;67.00
51559;DHT22;61650;48.882;2.092;2023-04-06T00:49:34;7.30;68.90
51559;DHT22;61650;48.882;2.092;2023-04-06T00:52:00;7.20;69.50
51559;DHT22;61650;48.882;2.092;2023-04-06T00:54:29;7.20;69.10
51559;DHT22;61650;48.882;2.092;2023-04-06T00:56:56;7.20;68.80
51559;DHT22;61650;48.882;2.092;2023-04-06T00:59:21;7.20;69.70
51559;DHT22;61650;48.882;2.092;2023-04-06T01:01:47;7.20;69.00
51559;DHT22;61650;48.882;2.092;2023-04-06T01:04:13;7.30;67.60
51559;DHT22;61650;48.882;2.092;2023-04-06T01:06:39;7.30;68.70
51559;DHT22;61650;48.882;2.092;2023-04-06T01:09:05;7.30;68.40
51559;DHT22;61650;48.882;2.092;2023-04-06T01:11:31;7.30;67.80
51559;DHT22;61650;48.882;2.092;2023-04-06T01:13:56;7.40;68.80
51559;DHT22;61650;48.882;2.092;2023-04-06T01:16:22;7.30;68.50
51559;DHT22;61650;48.882;2.092;2023-04-06T01:18:49;7.30;68.30
51559;DHT22;61650;48.882;2.092;2023-04-06T01:21:15;7.30;68.30
51559;DHT22;61650;48.882;2.092;2023-04-06T01:23:45;7.30;69.00
51559;DHT22;61650;48.882;2.092;2023-04-06T01:26:12;7.20;68.70
51559;DHT22;61650;48.882;2.092;2023-04-06T01:28:37;7.30;68.70
51559;DHT22;61650;48.882;2.092;2023-04-06T01:31:04;7.20;67.80
51559;DHT22;61650;48.882;2.092;2023-04-06T01:33:30;7.20;69.20
51559;DHT22;61650;48.882;2.092;2023-04-06T01:35:56;7.20;68.70
51559;DHT22;61650;48.882;2.092;2023-04-06T01:38:21;7.30;68.00
51559;DHT22;61650;48.882;2.092;2023-04-06T01:40:47;7.30;68.60
51559;DHT22;61650;48.882;2.092;2023-04-06T01:43:13;7.20;69.10
51559;DHT22;61650;48.882;2.092;2023-04-06T01:45:38;7.20;68.10
51559;DHT22;61650;48.882;2.092;2023-04-06T01:48:04;7.30;68.10
51559;DHT22;61650;48.882;2.092;2023-04-06T01:50:30;7.30;68.20
51559;DHT22;61650;48.882;2.092;2023-04-06T01:52:55;7.30;70.40
51559;DHT22;61650;48.882;2.092;2023-04-06T02:02:05;7.10;70.00
51559;DHT22;61650;48.882;2.092;2023-04-06T02:04:31;7.20;70.00
51559;DHT22;61650;48.882;2.092;2023-04-06T02:06:56;7.20;70.10
51559;DHT22;61650;48.882;2.092;2023-04-06T02:09:22;7.20;70.60
51559;DHT22;61650;48.882;2.092;2023-04-06T02:11:48;7.20;69.90
51559;DHT22;61650;48.882;2.092;2023-04-06T02:14:13;7.20;69.50
51559;DHT22;61650;48.882;2.092;2023-04-06T02:16:39;7.30;70.40
51559;DHT22;61650;48.882;2.092;2023-04-06T02:19:05;7.20;71.10
51559;DHT22;61650;48.882;2.092;2023-04-06T02:21:30;7.10;70.40
51559;DHT22;61650;48.882;2.092;2023-04-06T02:23:56;7.10;70.80
51559;DHT22;61650;48.882;2.092;2023-04-06T02:26:21;7.20;71.10
51559;DHT22;61650;48.882;2.092;2023-04-06T02:28:47;7.10;71.30
51559;DHT22;61650;48.882;2.092;2023-04-06T02:31:12;7.20;70.10
51559;DHT22;61650;48.882;2.092;2023-04-06T02:33:40;7.20;70.40
51559;DHT22;61650;48.882;2.092;2023-04-06T02:36:06;7.20;70.40
51559;DHT22;61650;48.882;2.092;2023-04-06T02:38:32;7.30;70.60
51559;DHT22;61650;48.882;2.092;2023-04-06T02:40:57;7.20;70.70
51559;DHT22;61650;48.882;2.092;2023-04-06T02:43:23;7.20;70.60
51559;DHT22;61650;48.882;2.092;2023-04-06T02:45:48;7.20;70.20
51559;DHT22;61650;48.882;2.092;2023-04-06T02:48:14;7.20;70.30
51559;DHT22;61650;48.882;2.092;2023-04-06T02:50:40;7.20;70.20
51559;DHT22;61650;48.882;2.092;2023-04-06T02:53:06;7.20;69.80
51559;DHT22;61650;48.882;2.092;2023-04-06T02:55:31;7.30;70.20
51559;DHT22;61650;48.882;2.092;2023-04-06T02:57:57;7.30;69.90
51559;DHT22;61650;48.882;2.092;2023-04-06T03:00:22;7.40;70.00
51559;DHT22;61650;48.882;2.092;2023-04-06T03:02:48;7.50;70.20
51559;DHT22;61650;48.882;2.092;2023-04-06T03:05:14;7.40;70.20
51559;DHT22;61650;48.882;2.092;2023-04-06T03:07:39;7.40;69.60
51559;DHT22;61650;48.882;2.092;2023-04-06T03:10:05;7.50;69.10
51559;DHT22;61650;48.882;2.092;2023-04-06T03:12:31;7.50;69.10
51559;DHT22;61650;48.882;2.092;2023-04-06T03:14:56;7.50;69.00
51559;DHT22;61650;48.882;2.092;2023-04-06T03:17:22;7.60;69.30
51559;DHT22;61650;48.882;2.092;2023-04-06T03:19:48;7.50;69.20
51559;DHT22;61650;48.882;2.092;2023-04-06T03:22:13;7.50;68.90
51559;DHT22;61650;48.882;2.092;2023-04-06T03:24:39;7.60;68.90
51559;DHT22;61650;48.882;2.092;2023-04-06T03:27:04;7.70;68.60
51559;DHT22;61650;48.882;2.092;2023-04-06T03:29:31;7.70;68.40
51559;DHT22;61650;48.882;2.092;2023-04-06T03:31:57;7.70;69.60
51559;DHT22;61650;48.882;2.092;2023-04-06T03:34:22;7.60;70.20
51559;DHT22;61650;48.882;2.092;2023-04-06T03:36:48;7.50;70.50
51559;DHT22;61650;48.882;2.092;2023-04-06T03:39:13;7.50;70.50
51559;DHT22;61650;48.882;2.092;2023-04-06T03:41:39;7.40;69.70
51559;DHT22;61650;48.882;2.092;2023-04-06T03:44:05;7.40;70.10
51559;DHT22;61650;48.882;2.092;2023-04-06T03:46:31;7.50;69.40
51559;DHT22;61650;48.882;2.092;2023-04-06T03:48:56;7.50;69.10
51559;DHT22;61650;48.882;2.092;2023-04-06T03:51:22;7.50;69.30
51559;DHT22;61650;48.882;2.092;2023-04-06T03:53:48;7.50;70.80
51559;DHT22;61650;48.882;2.092;2023-04-06T03:56:13;7.40;71.30
51559;DHT22;61650;48.882;2.092;2023-04-06T03:58:39;7.40;71.30
51559;DHT22;61650;48.882;2.092;2023-04-06T04:01:05;7.40;70.70
51559;DHT22;61650;48.882;2.092;2023-04-06T04:03:31;7.50;69.40
51559;DHT22;61650;48.882;2.092;2023-04-06T04:05:56;7.40;71.30
51559;DHT22;61650;48.882;2.092;2023-04-06T04:08:22;7.50;69.90
51559;DHT22;61650;48.882;2.092;2023-04-06T04:10:48;7.60;69.00
51559;DHT22;61650;48.882;2.092;2023-04-06T04:13:14;7.70;68.80
51559;DHT22;61650;48.882;2.092;2023-04-06T04:15:39;7.70;69.50
51559;DHT22;61650;48.882;2.092;2023-04-06T04:18:06;7.60;69.30
51559;DHT22;61650;48.882;2.092;2023-04-06T04:20:32;7.60;69.20
51559;DHT22;61650;48.882;2.092;2023-04-06T04:22:57;7.70;70.20
51559;DHT22;61650;48.882;2.092;2023-04-06T04:25:23;7.70;68.60
51559;DHT22;61650;48.882;2.092;2023-04-06T04:27:49;7.80;68.00
51559;DHT22;61650;48.882;2.092;2023-04-06T04:30:16;7.80;67.70
51559;DHT22;61650;48.882;2.092;2023-04-06T04:32:41;7.90;67.50
51559;DHT22;61650;48.882;2.092;2023-04-06T04:35:07;7.90;66.80
51559;DHT22;61650;48.882;2.092;2023-04-06T04:37:33;7.90;67.10
51559;DHT22;61650;48.882;2.092;2023-04-06T04:40:00;7.90;66.60
51559;DHT22;61650;48.882;2.092;2023-04-06T04:42:26;7.90;66.90
51559;DHT22;61650;48.882;2.092;2023-04-06T04:44:51;7.90;67.10
51559;DHT22;61650;48.882;2.092;2023-04-06T04:47:17;7.90;67.20
51559;DHT22;61650;48.882;2.092;2023-04-06T04:49:43;7.90;67.50
51559;DHT22;61650;48.882;2.092;2023-04-06T04:52:08;7.90;67.30
51559;DHT22;61650;48.882;2.092;2023-04-06T04:54:34;8.00;67.60
51559;DHT22;61650;48.882;2.092;2023-04-06T04:56:59;8.00;67.30
51559;DHT22;61650;48.882;2.092;2023-04-06T04:59:25;8.00;68.50
51559;DHT22;61650;48.882;2.092;2023-04-06T05:01:50;7.90;68.60
51559;DHT22;61650;48.882;2.092;2023-04-06T05:04:16;7.90;68.10
51559;DHT22;61650;48.882;2.092;2023-04-06T05:06:42;7.90;68.90
51559;DHT22;61650;48.882;2.092;2023-04-06T05:09:07;7.80;69.20
51559;DHT22;61650;48.882;2.092;2023-04-06T05:11:33;7.80;69.90
51559;DHT22;61650;48.882;2.092;2023-04-06T05:13:59;7.60;71.00
51559;DHT22;61650;48.882;2.092;2023-04-06T05:16:25;7.50;72.80
51559;DHT22;61650;48.882;2.092;2023-04-06T05:18:50;7.40;73.00
51559;DHT22;61650;48.882;2.092;2023-04-06T05:21:16;7.30;77.70
51559;DHT22;61650;48.882;2.092;2023-04-06T05:23:42;7.10;79.10
51559;DHT22;61650;48.882;2.092;2023-04-06T05:26:07;7.00;78.60
51559;DHT22;61650;48.882;2.092;2023-04-06T05:28:33;7.00;78.60
51559;DHT22;61650;48.882;2.092;2023-04-06T05:30:58;7.00;80.00
51559;DHT22;61650;48.882;2.092;2023-04-06T05:33:24;7.00;79.20
51559;DHT22;61650;48.882;2.092;2023-04-06T05:35:50;7.00;81.10
51559;DHT22;61650;48.882;2.092;2023-04-06T05:38:16;6.90;80.60
51559;DHT22;61650;48.882;2.092;2023-04-06T05:40:41;6.80;81.20
51559;DHT22;61650;48.882;2.092;2023-04-06T05:43:08;6.90;80.20
51559;DHT22;61650;48.882;2.092;2023-04-06T05:45:33;6.90;82.80
51559;DHT22;61650;48.882;2.092;2023-04-06T05:48:00;6.90;81.90
51559;DHT22;61650;48.882;2.092;2023-04-06T05:50:26;7.00;82.70
51559;DHT22;61650;48.882;2.092;2023-04-06T05:52:52;7.00;83.10
51559;DHT22;61650;48.882;2.092;2023-04-06T05:55:17;7.00;83.30
51559;DHT22;61650;48.882;2.092;2023-04-06T05:57:43;7.00;82.80
51559;DHT22;61650;48.882;2.092;2023-04-06T06:00:09;7.10;81.40
51559;DHT22;61650;48.882;2.092;2023-04-06T06:02:35;7.20;82.30
51559;DHT22;61650;48.882;2.092;2023-04-06T06:05:02;7.20;82.80
51559;DHT22;61650;48.882;2.092;2023-04-06T06:07:27;7.20;82.90
51559;DHT22;61650;48.882;2.092;2023-04-06T06:09:57;7.20;82.00
51559;DHT22;61650;48.882;2.092;2023-04-06T06:12:23;7.20;83.20
51559;DHT22;61650;48.882;2.092;2023-04-06T06:14:49;7.20;82.90
51559;DHT22;61650;48.882;2.092;2023-04-06T06:17:14;7.20;83.30
51559;DHT22;61650;48.882;2.092;2023-04-06T06:19:40;7.10;83.40
51559;DHT22;61650;48.882;2.092;2023-04-06T06:22:06;7.00;84.70
51559;DHT22;61650;48.882;2.092;2023-04-06T06:24:32;6.90;86.00
51559;DHT22;61650;48.882;2.092;2023-04-06T06:26:57;6.90;88.00
51559;DHT22;61650;48.882;2.092;2023-04-06T06:29:23;6.80;86.90
51559;DHT22;61650;48.882;2.092;2023-04-06T06:31:49;6.90;87.00
51559;DHT22;61650;48.882;2.092;2023-04-06T06:34:15;6.80;89.20
51559;DHT22;61650;48.882;2.092;2023-04-06T06:36:40;6.80;90.20
51559;DHT22;61650;48.882;2.092;2023-04-06T06:39:06;6.80;90.80
51559;DHT22;61650;48.882;2.092;2023-04-06T06:41:32;6.70;90.40
51559;DHT22;61650;48.882;2.092;2023-04-06T06:43:57;6.70;90.80
51559;DHT22;61650;48.882;2.092;2023-04-06T06:46:23;6.70;91.50
51559;DHT22;61650;48.882;2.092;2023-04-06T06:48:48;6.80;92.00
51559;DHT22;61650;48.882;2.092;2023-04-06T06:51:14;6.80;91.60
51559;DHT22;61650;48.882;2.092;2023-04-06T06:53:40;6.90;92.30
51559;DHT22;61650;48.882;2.092;2023-04-06T06:56:06;6.90;90.70
51559;DHT22;61650;48.882;2.092;2023-04-06T06:58:31;7.00;90.30
51559;DHT22;61650;48.882;2.092;2023-04-06T07:00:58;7.10;88.00
51559;DHT22;61650;48.882;2.092;2023-04-06T07:03:24;7.20;88.80
51559;DHT22;61650;48.882;2.092;2023-04-06T07:05:50;7.30;88.10
51559;DHT22;61650;48.882;2.092;2023-04-06T07:08:22;7.30;86.00
51559;DHT22;61650;48.882;2.092;2023-04-06T07:10:48;7.40;85.70
51559;DHT22;61650;48.882;2.092;2023-04-06T07:13:14;7.40;85.70
51559;DHT22;61650;48.882;2.092;2023-04-06T07:15:47;7.40;84.60
51559;DHT22;61650;48.882;2.092;2023-04-06T07:18:12;7.30;85.10
51559;DHT22;61650;48.882;2.092;2023-04-06T07:20:38;7.30;85.60
51559;DHT22;61650;48.882;2.092;2023-04-06T07:23:04;7.20;86.30
51559;DHT22;61650;48.882;2.092;2023-04-06T07:25:30;7.10;87.90
51559;DHT22;61650;48.882;2.092;2023-04-06T07:27:56;7.00;89.60
51559;DHT22;61650;48.882;2.092;2023-04-06T07:30:22;7.10;90.70
51559;DHT22;61650;48.882;2.092;2023-04-06T07:32:48;7.10;91.20
51559;DHT22;61650;48.882;2.092;2023-04-06T07:35:14;7.10;91.30
51559;DHT22;61650;48.882;2.092;2023-04-06T07:37:40;7.10;90.20
51559;DHT22;61650;48.882;2.092;2023-04-06T07:40:06;7.10;92.10
51559;DHT22;61650;48.882;2.092;2023-04-06T07:42:32;7.20;93.10
51559;DHT22;61650;48.882;2.092;2023-04-06T07:44:58;7.30;93.60
51559;DHT22;61650;48.882;2.092;2023-04-06T07:47:24;7.40;89.90
51559;DHT22;61650;48.882;2.092;2023-04-06T07:49:49;7.40;90.40
51559;DHT22;61650;48.882;2.092;2023-04-06T07:52:15;7.50;89.40
51559;DHT22;61650;48.882;2.092;2023-04-06T07:54:41;7.60;90.10
51559;DHT22;61650;48.882;2.092;2023-04-06T07:57:07;7.70;88.90
51559;DHT22;61650;48.882;2.092;2023-04-06T07:59:33;7.90;88.70
51559;DHT22;61650;48.882;2.092;2023-04-06T08:01:58;8.00;87.40
51559;DHT22;61650;48.882;2.092;2023-04-06T08:04:24;8.10;85.10
51559;DHT22;61650;48.882;2.092;2023-04-06T08:06:49;8.00;84.10
51559;DHT22;61650;48.882;2.092;2023-04-06T08:09:15;8.00;83.00
51559;DHT22;61650;48.882;2.092;2023-04-06T08:11:41;8.10;81.90
51559;DHT22;61650;48.882;2.092;2023-04-06T08:14:06;8.20;82.20
51559;DHT22;61650;48.882;2.092;2023-04-06T08:16:32;8.30;81.10
51559;DHT22;61650;48.882;2.092;2023-04-06T08:18:58;8.40;80.80
51559;DHT22;61650;48.882;2.092;2023-04-06T08:21:23;8.40;81.40
51559;DHT22;61650;48.882;2.092;2023-04-06T08:23:49;8.50;81.10
51559;DHT22;61650;48.882;2.092;2023-04-06T08:26:14;8.60;81.50
51559;DHT22;61650;48.882;2.092;2023-04-06T08:28:40;8.60;81.40
51559;DHT22;61650;48.882;2.092;2023-04-06T08:31:06;8.60;81.20
51559;DHT22;61650;48.882;2.092;2023-04-06T08:33:33;8.70;81.60
51559;DHT22;61650;48.882;2.092;2023-04-06T08:36:10;8.70;83.00
51559;DHT22;61650;48.882;2.092;2023-04-06T08:38:36;8.80;81.70
51559;DHT22;61650;48.882;2.092;2023-04-06T08:41:09;8.80;82.30
51559;DHT22;61650;48.882;2.092;2023-04-06T08:43:48;8.70;82.50
51559;DHT22;61650;48.882;2.092;2023-04-06T08:46:14;8.70;83.20
51559;DHT22;61650;48.882;2.092;2023-04-06T08:48:41;8.80;83.20
51559;DHT22;61650;48.882;2.092;2023-04-06T08:51:08;8.80;83.10
51559;DHT22;61650;48.882;2.092;2023-04-06T08:53:35;8.80;83.50
51559;DHT22;61650;48.882;2.092;2023-04-06T08:56:01;8.80;84.40
51559;DHT22;61650;48.882;2.092;2023-04-06T08:58:33;8.80;84.00
51559;DHT22;61650;48.882;2.092;2023-04-06T09:01:00;8.80;85.40
51559;DHT22;61650;48.882;2.092;2023-04-06T09:03:26;8.80;86.00
51559;DHT22;61650;48.882;2.092;2023-04-06T09:05:52;8.70;87.00
51559;DHT22;61650;48.882;2.092;2023-04-06T09:08:19;8.70;88.50
51559;DHT22;61650;48.882;2.092;2023-04-06T09:10:45;8.80;88.70
51559;DHT22;61650;48.882;2.092;2023-04-06T09:13:11;8.90;88.70
51559;DHT22;61650;48.882;2.092;2023-04-06T09:15:37;8.80;89.60
51559;DHT22;61650;48.882;2.092;2023-04-06T09:18:03;9.00;89.40
51559;DHT22;61650;48.882;2.092;2023-04-06T09:20:28;9.20;88.50
51559;DHT22;61650;48.882;2.092;2023-04-06T09:22:55;9.30;87.20
51559;DHT22;61650;48.882;2.092;2023-04-06T09:25:22;9.30;86.70
51559;DHT22;61650;48.882;2.092;2023-04-06T09:27:57;9.20;87.80
51559;DHT22;61650;48.882;2.092;2023-04-06T09:30:24;9.30;87.70
51559;DHT22;61650;48.882;2.092;2023-04-06T09:32:52;9.30;87.70
51559;DHT22;61650;48.882;2.092;2023-04-06T09:35:19;9.40;87.50
51559;DHT22;61650;48.882;2.092;2023-04-06T09:37:46;9.30;87.20
51559;DHT22;61650;48.882;2.092;2023-04-06T09:40:13;9.20;88.50
51559;DHT22;61650;48.882;2.092;2023-04-06T09:42:42;9.10;88.70
51559;DHT22;61650;48.882;2.092;2023-04-06T09:45:08;9.10;89.30
51559;DHT22;61650;48.882;2.092;2023-04-06T09:47:36;9.10;89.10
51559;DHT22;61650;48.882;2.092;2023-04-06T09:50:03;9.10;89.30
51559;DHT22;61650;48.882;2.092;2023-04-06T09:52:33;9.10;89.30
51559;DHT22;61650;48.882;2.092;2023-04-06T09:55:03;9.20;89.00
51559;DHT22;61650;48.882;2.092;2023-04-06T09:57:35;9.40;88.40
51559;DHT22;61650;48.882;2.092;2023-04-06T10:05:18;9.60;87.00
51559;DHT22;61650;48.882;2.092;2023-04-06T10:07:45;9.80;86.20
51559;DHT22;61650;48.882;2.092;2023-04-06T10:10:12;9.90;85.80
51559;DHT22;61650;48.882;2.092;2023-04-06T10:12:40;10.10;84.70
51559;DHT22;61650;48.882;2.092;2023-04-06T10:15:06;10.20;83.90
51559;DHT22;61650;48.882;2.092;2023-04-06T10:17:32;10.00;83.90
51559;DHT22;61650;48.882;2.092;2023-04-06T10:20:04;10.00;85.30
51559;DHT22;61650;48.882;2.092;2023-04-06T10:22:45;10.00;84.90
51559;DHT22;61650;48.882;2.092;2023-04-06T10:25:26;9.90;86.30
51559;DHT22;61650;48.882;2.092;2023-04-06T10:28:04;10.00;85.70
51559;DHT22;61650;48.882;2.092;2023-04-06T10:30:31;10.00;86.20
51559;DHT22;61650;48.882;2.092;2023-04-06T10:32:57;10.10;85.60
51559;DHT22;61650;48.882;2.092;2023-04-06T10:35:23;10.10;85.50
51559;DHT22;61650;48.882;2.092;2023-04-06T10:37:51;10.20;85.40
51559;DHT22;61650;48.882;2.092;2023-04-06T10:40:27;10.20;85.70
51559;DHT22;61650;48.882;2.092;2023-04-06T10:42:53;10.20;84.40
51559;DHT22;61650;48.882;2.092;2023-04-06T10:45:24;10.30;84.40
51559;DHT22;61650;48.882;2.092;2023-04-06T10:47:52;10.40;84.60
51559;DHT22;61650;48.882;2.092;2023-04-06T10:50:18;10.30;82.00
51559;DHT22;61650;48.882;2.092;2023-04-06T10:52:47;10.40;83.00
51559;DHT22;61650;48.882;2.092;2023-04-06T10:55:23;10.40;82.30
51559;DHT22;61650;48.882;2.092;2023-04-06T10:57:49;10.50;82.20
51559;DHT22;61650;48.882;2.092;2023-04-06T11:00:15;10.60;81.80
51559;DHT22;61650;48.882;2.092;2023-04-06T11:02:41;10.90;81.20
51559;DHT22;61650;48.882;2.092;2023-04-06T11:05:07;11.00;79.40
51559;DHT22;61650;48.882;2.092;2023-04-06T11:07:33;11.20;79.50
51559;DHT22;61650;48.882;2.092;2023-04-06T11:09:58;11.40;78.80
51559;DHT22;61650;48.882;2.092;2023-04-06T11:12:26;11.80;77.90
51559;DHT22;61650;48.882;2.092;2023-04-06T11:14:56;11.90;75.20
51559;DHT22;61650;48.882;2.092;2023-04-06T11:17:28;11.90;75.80
51559;DHT22;61650;48.882;2.092;2023-04-06T11:19:55;12.00;73.70
51559;DHT22;61650;48.882;2.092;2023-04-06T11:22:21;12.30;73.10
51559;DHT22;61650;48.882;2.092;2023-04-06T11:24:46;12.40;71.30
51559;DHT22;61650;48.882;2.092;2023-04-06T11:27:12;12.40;71.30
51559;DHT22;61650;48.882;2.092;2023-04-06T11:29:40;12.30;70.30
51559;DHT22;61650;48.882;2.092;2023-04-06T11:32:06;12.40;70.30
51559;DHT22;61650;48.882;2.092;2023-04-06T11:34:37;12.50;69.40
51559;DHT22;61650;48.882;2.092;2023-04-06T11:37:08;12.70;69.50
51559;DHT22;61650;48.882;2.092;2023-04-06T11:39:39;12.90;68.80
51559;DHT22;61650;48.882;2.092;2023-04-06T11:42:08;13.00;67.50
51559;DHT22;61650;48.882;2.092;2023-04-06T11:44:39;12.80;68.90
51559;DHT22;61650;48.882;2.092;2023-04-06T11:47:07;12.60;70.70
51559;DHT22;61650;48.882;2.092;2023-04-06T11:49:36;12.70;70.90
51559;DHT22;61650;48.882;2.092;2023-04-06T11:52:02;13.50;70.50
51559;DHT22;61650;48.882;2.092;2023-04-06T11:54:37;14.40;65.10
51559;DHT22;61650;48.882;2.092;2023-04-06T11:57:04;14.20;63.70
51559;DHT22;61650;48.882;2.092;2023-04-06T11:59:30;14.10;64.20
51559;DHT22;61650;48.882;2.092;2023-04-06T12:01:57;14.30;63.80
51559;DHT22;61650;48.882;2.092;2023-04-06T12:04:23;14.70;63.00
51559;DHT22;61650;48.882;2.092;2023-04-06T12:06:48;14.90;61.20
51559;DHT22;61650;48.882;2.092;2023-04-06T12:09:15;14.30;63.50
51559;DHT22;61650;48.882;2.092;2023-04-06T12:11:40;14.10;63.90
51559;DHT22;61650;48.882;2.092;2023-04-06T12:14:06;13.80;63.30
51559;DHT22;61650;48.882;2.092;2023-04-06T12:16:33;13.70;64.80
51559;DHT22;61650;48.882;2.092;2023-04-06T12:18:59;13.50;64.10
51559;DHT22;61650;48.882;2.092;2023-04-06T12:21:27;13.50;63.80
51559;DHT22;61650;48.882;2.092;2023-04-06T12:23:53;13.40;64.50
51559;DHT22;61650;48.882;2.092;2023-04-06T12:26:19;13.40;65.50
51559;DHT22;61650;48.882;2.092;2023-04-06T12:28:45;13.30;64.20
51559;DHT22;61650;48.882;2.092;2023-04-06T12:31:21;13.30;64.00
51559;DHT22;61650;48.882;2.092;2023-04-06T12:33:48;13.40;62.50
51559;DHT22;61650;48.882;2.092;2023-04-06T12:36:19;13.40;62.20
51559;DHT22;61650;48.882;2.092;2023-04-06T12:38:46;13.60;60.40
51559;DHT22;61650;48.882;2.092;2023-04-06T12:41:12;13.60;61.40
51559;DHT22;61650;48.882;2.092;2023-04-06T12:43:40;13.60;59.30
51559;DHT22;61650;48.882;2.092;2023-04-06T12:46:06;13.80;59.10
51559;DHT22;61650;48.882;2.092;2023-04-06T12:48:31;13.90;60.40
51559;DHT22;61650;48.882;2.092;2023-04-06T12:50:59;14.20;59.40
51559;DHT22;61650;48.882;2.092;2023-04-06T12:53:25;14.70;58.80
51559;DHT22;61650;48.882;2.092;2023-04-06T12:55:52;16.00;53.80
51559;DHT22;61650;48.882;2.092;2023-04-06T12:58:18;16.70;52.10
51559;DHT22;61650;48.882;2.092;2023-04-06T13:00:44;16.60;52.90
51559;DHT22;61650;48.882;2.092;2023-04-06T13:03:10;16.90;52.80
51559;DHT22;61650;48.882;2.092;2023-04-06T13:05:36;17.20;50.80
51559;DHT22;61650;48.882;2.092;2023-04-06T13:08:08;18.50;50.50
51559;DHT22;61650;48.882;2.092;2023-04-06T13:10:34;17.00;49.80
51559;DHT22;61650;48.882;2.092;2023-04-06T13:13:00;15.50;53.90
51559;DHT22;61650;48.882;2.092;2023-04-06T13:15:25;15.10;56.40
51559;DHT22;61650;48.882;2.092;2023-04-06T13:17:51;15.00;55.80
51559;DHT22;61650;48.882;2.092;2023-04-06T13:20:16;15.20;56.40
51559;DHT22;61650;48.882;2.092;2023-04-06T13:22:42;15.40;53.90
51559;DHT22;61650;48.882;2.092;2023-04-06T13:25:08;15.20;55.40
51559;DHT22;61650;48.882;2.092;2023-04-06T13:27:33;14.80;54.90
51559;DHT22;61650;48.882;2.092;2023-04-06T13:30:01;15.40;54.40
51559;DHT22;61650;48.882;2.092;2023-04-06T13:32:28;15.80;53.80
51559;DHT22;61650;48.882;2.092;2023-04-06T13:34:56;15.30;53.20
51559;DHT22;61650;48.882;2.092;2023-04-06T13:37:22;15.70;51.20
51559;DHT22;61650;48.882;2.092;2023-04-06T13:39:48;15.40;51.50
51559;DHT22;61650;48.882;2.092;2023-04-06T13:42:14;15.20;52.00
51559;DHT22;61650;48.882;2.092;2023-04-06T13:44:39;15.50;51.40
51559;DHT22;61650;48.882;2.092;2023-04-06T13:47:05;15.90;50.30
51559;DHT22;61650;48.882;2.092;2023-04-06T13:49:31;15.80;51.60
51559;DHT22;61650;48.882;2.092;2023-04-06T13:51:56;15.90;50.90
51559;DHT22;61650;48.882;2.092;2023-04-06T13:54:22;16.20;49.90
51559;DHT22;61650;48.882;2.092;2023-04-06T13:56:48;15.70;49.90
51559;DHT22;61650;48.882;2.092;2023-04-06T13:59:13;15.40;50.80
51559;DHT22;61650;48.882;2.092;2023-04-06T14:01:39;15.00;51.30
51559;DHT22;61650;48.882;2.092;2023-04-06T14:04:04;14.80;51.30
51559;DHT22;61650;48.882;2.092;2023-04-06T14:06:30;14.80;51.40
51559;DHT22;61650;48.882;2.092;2023-04-06T14:08:56;14.60;52.40
51559;DHT22;61650;48.882;2.092;2023-04-06T14:11:22;15.70;51.40
51559;DHT22;61650;48.882;2.092;2023-04-06T14:13:47;17.00;49.30
51559;DHT22;61650;48.882;2.092;2023-04-06T14:16:13;17.70;46.50
51559;DHT22;61650;48.882;2.092;2023-04-06T14:18:39;17.20;46.00
51559;DHT22;61650;48.882;2.092;2023-04-06T14:21:05;16.70;48.60
51559;DHT22;61650;48.882;2.092;2023-04-06T14:23:31;15.90;49.00
51559;DHT22;61650;48.882;2.092;2023-04-06T14:26:05;15.20;51.40
51559;DHT22;61650;48.882;2.092;2023-04-06T14:28:32;15.00;52.30
51559;DHT22;61650;48.882;2.092;2023-04-06T14:31:02;15.60;52.00
51559;DHT22;61650;48.882;2.092;2023-04-06T14:33:30;16.20;50.20
51559;DHT22;61650;48.882;2.092;2023-04-06T14:35:56;16.70;49.70
51559;DHT22;61650;48.882;2.092;2023-04-06T14:38:22;17.00;49.70
51559;DHT22;61650;48.882;2.092;2023-04-06T14:40:47;17.30;49.00
51559;DHT22;61650;48.882;2.092;2023-04-06T14:43:13;16.50;49.00
51559;DHT22;61650;48.882;2.092;2023-04-06T14:45:39;16.50;49.80
51559;DHT22;61650;48.882;2.092;2023-04-06T14:48:05;16.30;49.40
51559;DHT22;61650;48.882;2.092;2023-04-06T14:50:38;16.40;48.50
51559;DHT22;61650;48.882;2.092;2023-04-06T14:53:03;16.40;48.60
51559;DHT22;61650;48.882;2.092;2023-04-06T14:55:30;16.30;48.40
51559;DHT22;61650;48.882;2.092;2023-04-06T14:57:55;16.20;49.70
51559;DHT22;61650;48.882;2.092;2023-04-06T15:00:21;15.70;49.60
51559;DHT22;61650;48.882;2.092;2023-04-06T15:02:47;15.30;50.20
51559;DHT22;61650;48.882;2.092;2023-04-06T15:05:12;15.10;51.10
51559;DHT22;61650;48.882;2.092;2023-04-06T15:07:38;15.20;51.40
51559;DHT22;61650;48.882;2.092;2023-04-06T15:10:05;15.50;50.80
51559;DHT22;61650;48.882;2.092;2023-04-06T15:12:31;15.50;51.30
51559;DHT22;61650;48.882;2.092;2023-04-06T15:14:57;15.60;51.30
51559;DHT22;61650;48.882;2.092;2023-04-06T15:17:23;15.70;51.40
51559;DHT22;61650;48.882;2.092;2023-04-06T15:19:50;15.40;52.10
51559;DHT22;61650;48.882;2.092;2023-04-06T15:22:16;15.20;52.40
51559;DHT22;61650;48.882;2.092;2023-04-06T15:24:41;15.00;53.00
51559;DHT22;61650;48.882;2.092;2023-04-06T15:27:07;14.90;52.90
51559;DHT22;61650;48.882;2.092;2023-04-06T15:29:33;14.80;53.10
51559;DHT22;61650;48.882;2.092;2023-04-06T15:31:58;14.70;53.40
51559;DHT22;61650;48.882;2.092;2023-04-06T15:34:24;14.70;54.00
51559;DHT22;61650;48.882;2.092;2023-04-06T15:36:49;14.70;54.60
51559;DHT22;61650;48.882;2.092;2023-04-06T15:39:16;14.60;54.50
51559;DHT22;61650;48.882;2.092;2023-04-06T15:41:42;14.50;55.00
51559;DHT22;61650;48.882;2.092;2023-04-06T15:44:07;14.60;55.10
51559;DHT22;61650;48.882;2.092;2023-04-06T15:46:33;14.60;55.20